Latest Coastal Weather Observations for Parndana

IDS60701

Issued at 1:31 am CST Monday 31 August 2015 (issued every 10 minutes, with the page automatically refreshed every 10 minutes)

About coastal observations | Map of coastal stations | Coastal observations for SA | Marine services | Other Formats
Station Details ID: 022843 Name: PARNDANA CFS AWS Lat: -35.79 Lon: 137.25 Height: 165.0 m
Data from the previous 72 hours. | See also: Recent months at Parndana
Date/Time
CST
Temp

°C
Wind Pressure Rain
since 9am
mm
Weather Cloud Vis
km
Sea
Height
m
Swell
Dir
 
Speed
knots
Gust
knots
hPa Trend Height
m
Period
s
Dir
31/01:30am 6.3 NE 4 5 - - 0.0 - - - - - - -
31/01:00am 6.2 NE 4 5 - - 0.0 - - - - - - -
31/12:30am 6.0 NE 3 4 - - 0.0 - - - - - - -
31/12:00am 5.8 NE 4 4 - - 0.0 - - - - - - -
 
Date/Time
CST
Temp

°C
Wind Pressure Rain
since 9am
mm
Weather Cloud Vis
km
Sea
Height
m
Swell
Dir
 
Speed
knots
Gust
knots
hPa Trend Height
m
Period
s
Dir
30/11:30pm 5.6 ENE 3 4 - - 0.0 - - - - - - -
30/11:00pm 5.6 ENE 4 5 - - 0.0 - - - - - - -
30/10:30pm 5.6 E 3 4 - - 0.0 - - - - - - -
30/10:00pm 4.9 E 5 6 - - 0.0 - - - - - - -
30/09:30pm 5.9 ENE 3 4 - - 0.0 - - - - - - -
30/09:00pm 5.9 ENE 3 4 - - 0.0 - - - - - - -
30/08:30pm 6.3 ENE 4 4 - - 0.0 - - - - - - -
30/08:00pm 6.8 NE 6 7 - - 0.0 - - - - - - -
30/07:30pm 7.2 NE 5 7 - - 0.0 - - - - - - -
30/07:00pm 7.2 ENE 6 7 - - 0.0 - - - - - - -
30/06:30pm 7.7 NE 6 7 - - 0.0 - - - - - - -
30/06:00pm 8.6 NE 5 7 - - 0.0 - - - - - - -
30/05:30pm 10.2 ENE 5 7 - - 0.0 - - - - - - -
30/05:00pm 11.0 NE 6 7 - - 0.0 - - - - - - -
30/04:30pm 11.2 NE 7 10 - - 0.0 - - - - - - -
30/04:00pm 12.9 NNE 6 8 - - 0.0 - - - - - - -
30/03:30pm 12.6 N 4 8 - - 0.0 - - - - - - -
30/03:00pm 12.8 NNE 6 10 - - 0.0 - - - - - - -
30/02:30pm 12.6 NNE 5 8 - - 0.0 - - - - - - -
30/02:00pm 12.8 NE 7 10 - - 0.0 - - - - - - -
30/01:30pm 12.6 NE 6 9 - - 0.0 - - - - - - -
30/01:00pm 12.7 NE 8 12 - - 0.0 - - - - - - -
30/12:30pm 12.0 NNE 7 10 - - 0.0 - - - - - - -
30/12:00pm 11.9 NE 7 11 - - 0.0 - - - - - - -
30/11:30am 11.5 ENE 7 11 - - 0.0 - - - - - - -
30/11:00am 11.0 ENE 7 11 - - 0.0 - - - - - - -
30/10:30am 10.9 NE 8 13 - - 0.0 - - - - - - -
30/10:00am 10.4 NE 9 13 - - 0.0 - - - - - - -
30/09:30am 9.7 ENE 10 13 - - 0.0 - - - - - - -
30/09:00am 9.4 ENE 8 9 - - 0.0 - - - - - - -
30/08:30am 8.3 ENE 5 8 - - 0.0 - - - - - - -
30/08:00am 6.3 E 4 4 - - 0.0 - - - - - - -
30/07:30am 4.4 ENE 4 5 - - 0.0 - - - - - - -
30/07:00am 3.5 ENE 4 5 - - 0.0 - - - - - - -
30/06:30am 3.3 ENE 5 6 - - 0.0 - - - - - - -
30/06:00am 4.0 E 5 6 - - 0.0 - - - - - - -
30/05:30am 4.7 E 4 5 - - 0.0 - - - - - - -
30/05:00am 4.6 E 6 7 - - 0.0 - - - - - - -
30/04:30am 4.2 E 5 6 - - 0.0 - - - - - - -
30/04:00am 4.6 E 5 6 - - 0.0 - - - - - - -
30/03:30am 4.4 E 6 7 - - 0.0 - - - - - - -
30/03:00am 4.4 E 6 8 - - 0.0 - - - - - - -
30/02:30am 4.2 ENE 6 7 - - 0.0 - - - - - - -
30/02:00am 4.4 E 6 8 - - 0.0 - - - - - - -
30/01:30am 4.9 E 5 6 - - 0.0 - - - - - - -
30/01:00am 4.7 ESE 5 6 - - 0.0 - - - - - - -
30/12:30am 5.1 ESE 4 5 - - 0.0 - - - - - - -
30/12:00am 4.7 ESE 4 5 - - 0.0 - - - - - - -
 
Date/Time
CST
Temp

°C
Wind Pressure Rain
since 9am
mm
Weather Cloud Vis
km
Sea
Height
m
Swell
Dir
 
Speed
knots
Gust
knots
hPa Trend Height
m
Period
s
Dir
29/11:30pm 4.3 SE 4 5 - - 0.0 - - - - - - -
29/11:00pm 4.5 ESE 4 6 - - 0.0 - - - - - - -
29/10:30pm 4.8 SE 4 7 - - 0.0 - - - - - - -
29/10:00pm 4.5 SE 3 5 - - 0.0 - - - - - - -
29/09:30pm 3.3 SSW 4 5 - - 0.0 - - - - - - -
29/09:00pm 3.9 SE 2 3 - - 0.0 - - - - - - -
29/08:30pm 3.9 SSE 3 3 - - 0.0 - - - - - - -
29/08:00pm 4.7 SE 3 3 - - 0.0 - - - - - - -
29/07:30pm 4.7 SE 4 4 - - 0.0 - - - - - - -
29/07:00pm 4.2 SE 5 6 - - 0.0 - - - - - - -
29/06:30pm 4.3 SE 6 7 - - 0.0 - - - - - - -
29/06:00pm 5.5 ESE 7 10 - - 0.0 - - - - - - -
29/05:30pm 7.5 ESE 9 13 - - 0.0 - - - - - - -
29/05:00pm 8.5 ESE 9 12 - - 0.0 - - - - - - -
29/04:30pm 9.2 ESE 10 13 - - 0.0 - - - - - - -
29/04:00pm 9.7 ESE 10 17 - - 0.0 - - - - - - -
29/03:30pm 10.1 ESE 10 14 - - 0.0 - - - - - - -
29/03:00pm 10.4 ESE 11 15 - - 0.0 - - - - - - -
29/02:30pm 10.9 ESE 11 15 - - 0.0 - - - - - - -
29/02:00pm 11.0 ESE 10 15 - - 0.0 - - - - - - -
29/01:30pm 10.6 ESE 10 14 - - 0.0 - - - - - - -
29/01:00pm 11.1 E 10 13 - - 0.0 - - - - - - -
29/12:30pm 11.0 E 9 13 - - 0.0 - - - - - - -
29/12:00pm 10.3 E 11 16 - - 0.0 - - - - - - -
29/11:30am 10.6 E 12 15 - - 0.0 - - - - - - -
29/11:00am 10.1 ENE 10 14 - - 0.0 - - - - - - -
29/10:30am 10.2 ENE 9 13 - - 0.0 - - - - - - -
29/10:00am 9.6 E 10 15 - - 0.0 - - - - - - -
29/09:30am 9.5 E 12 15 - - 0.0 - - - - - - -
29/09:00am 9.3 E 11 14 - - 1.4 - - - - - - -
29/08:30am 9.3 E 8 11 - - 1.4 - - - - - - -
29/08:00am 8.3 E 6 9 - - 1.4 - - - - - - -
29/07:30am 7.8 ENE 5 6 - - 1.4 - - - - - - -
29/07:00am 7.0 ENE 3 4 - - 1.4 - - - - - - -
29/06:30am 7.0 NE 3 5 - - 1.4 - - - - - - -
29/06:00am 7.5 ENE 4 6 - - 1.4 Recent precip. - - - - - -
29/05:30am 7.6 SE 6 11 - - 1.2 - - - - - - -
29/05:00am 5.9 S 3 3 - - 1.2 - - - - - - -
29/04:30am 6.6 SSE 3 3 - - 1.2 - - - - - - -
29/04:00am 6.5 SSE 4 5 - - 1.0 - - - - - - -
29/03:30am 7.2 S 3 4 - - 1.0 - - - - - - -
29/03:00am 6.8 SSW 3 4 - - 1.0 - - - - - - -
29/02:30am 7.6 SW 2 3 - - 1.0 - - - - - - -
29/02:00am 7.5 SW 3 4 - - 1.0 - - - - - - -
29/01:30am 7.9 SW 3 3 - - 1.0 - - - - - - -
29/01:00am 8.3 SSW 2 3 - - 1.0 - - - - - - -
29/12:30am 8.4 S 3 4 - - 1.0 - - - - - - -
29/12:00am 8.3 S 3 4 - - 0.8 Recent precip. - - - - - -
 
Date/Time
CST
Temp

°C
Wind Pressure Rain
since 9am
mm
Weather Cloud Vis
km
Sea
Height
m
Swell
Dir
 
Speed
knots
Gust
knots
hPa Trend Height
m
Period
s
Dir
28/11:30pm 7.7 WSW 2 3 - - 0.2 - - - - - - -
28/11:00pm 8.0 SSW 2 3 - - 0.2 - - - - - - -
28/10:30pm 8.1 SSW 2 3 - - 0.0 - - - - - - -
28/10:00pm 7.6 SW 2 3 - - 0.0 - - - - - - -
28/09:30pm 7.2 SW 3 3 - - 0.0 - - - - - - -
28/09:00pm 7.9 SSW 3 4 - - 0.0 - - - - - - -
28/08:30pm 7.8 S 2 2 - - 0.0 - - - - - - -
28/08:00pm 8.1 S 2 3 - - 0.0 - - - - - - -
28/07:30pm 8.1 SSE 3 4 - - 0.0 - - - - - - -
28/07:00pm 8.4 SSE 3 4 - - 0.0 - - - - - - -
28/06:30pm 9.0 SSE 4 5 - - 0.0 - - - - - - -
28/06:00pm 9.6 SE 4 5 - - 0.0 - - - - - - -
28/05:30pm 10.4 SE 4 5 - - 0.0 - - - - - - -
28/05:00pm 10.8 ESE 5 7 - - 0.0 - - - - - - -
28/04:30pm 11.1 ESE 6 8 - - 0.0 - - - - - - -
28/04:00pm 11.6 ESE 6 8 - - 0.0 - - - - - - -
28/03:30pm 11.3 SE 8 11 - - 0.0 - - - - - - -
28/03:00pm 11.7 SE 4 9 - - 0.0 - - - - - - -
28/02:30pm 11.3 SSE 7 9 - - 0.0 - - - - - - -
28/02:00pm 11.7 SE 6 9 - - 0.0 - - - - - - -
28/01:30pm 11.2 SSE 7 9 - - 0.0 - - - - - - -
28/01:00pm 11.2 SSE 7 9 - - 0.0 - - - - - - -
28/12:30pm 11.1 SE 6 8 - - 0.0 - - - - - - -
28/12:00pm 11.4 SE 6 8 - - 0.0 - - - - - - -
28/11:30am 11.6 ESE 6 9 - - 0.0 - - - - - - -
28/11:00am 11.3 ESE 7 11 - - 0.0 - - - - - - -
28/10:30am 10.8 SSE 9 12 - - 0.0 - - - - - - -
28/10:00am 10.7 SE 10 13 - - 0.0 - - - - - - -
28/09:30am 10.3 SSE 9 12 - - 0.0 - - - - - - -
28/09:00am 10.6 SSE 7 9 - - 2.2 - - - - - - -
28/08:30am 10.1 SSE 5 7 - - 2.2 - - - - - - -
28/08:00am 9.0 SSE 3 5 - - 2.2 - - - - - - -
28/07:30am 7.2 SSW 4 4 - - 2.2 - - - - - - -
28/07:00am 7.4 SSE 4 5 - - 2.2 - - - - - - -
28/06:30am 7.7 S 3 4 - - 2.2 - - - - - - -
28/06:00am 8.1 SSW 5 6 - - 2.2 - - - - - - -
28/05:30am 8.3 SSE 4 6 - - 2.2 - - - - - - -
28/05:00am 8.2 S 4 5 - - 2.2 - - - - - - -
28/04:30am 8.4 S 4 5 - - 2.2 - - - - - - -
28/04:00am 8.1 SSW 4 5 - - 2.2 - - - - - - -
28/03:30am 7.9 S 3 3 - - 2.2 - - - - - - -
28/03:00am 8.0 CALM 0 0 - - 2.2 - - - - - - -
28/02:30am 7.9 CALM 0 2 - - 2.2 - - - - - - -
28/02:00am 7.9 SSE 2 5 - - 2.2 - - - - - - -

Other Formats:

Comma delimited format used in spreadsheet applications
http://www.bom.gov.au/fwo/IDS60701/IDS60701.94807.axf

JavaScript Object Notation format (JSON) in row-major order
http://www.bom.gov.au/fwo/IDS60701/IDS60701.94807.json